Time;durP1;ratioP1;P1;durP2;ratioP2;P2;SDS_P1;SDS_P2;PMS_P1;PMS_P2;Temp;Humidity;BMP_temperature;BMP_pressure;BME280_temperature;BME280_humidity;BME280_pressure;Samples;Min_cycle;Max_cycle;Signal;HPM_P1;HPM_P2
2023/01/25 00:02:14;;;;;;;;;;;;;;;;;;5017720;28;20299;-83
2023/01/25 00:04:40;;;;;;;;;;;;;;;;;;5023941;28;19978;-85
2023/01/25 00:07:06;;;;;;;;;;;;;;;;;;5022449;28;19921;-84
2023/01/25 00:09:32;;;;;;;;;;;;;;;;;;5003067;28;20333;-84
2023/01/25 00:11:58;;;;;;;;;;;;;;;;;;4999712;28;19990;-84
2023/01/25 00:14:24;;;;;;;;;;;;;;;;;;5022474;28;19929;-84
2023/01/25 00:16:50;;;;;;;;;;;;;;;;;;5004043;28;19921;-84
2023/01/25 00:19:16;;;;;;;;;;;;;;;;;;5012497;28;20141;-83
2023/01/25 00:21:42;;;;;;;;;;;;;;;;;;5010852;28;20398;-84
2023/01/25 00:24:10;;;;;;;;;;;;;;;;;;4995714;28;20061;-84
2023/01/25 00:26:36;;;;;;;;;;;;;;;;;;5016271;28;19921;-84
2023/01/25 00:29:02;;;;;;;;;;;;;;;;;;5018845;28;19944;-85
2023/01/25 00:31:28;;;;;;;;;;;;;;;;;;5018077;28;19968;-84
2023/01/25 00:33:54;;;;;;;;;;;;;;;;;;5036341;28;19992;-85
2023/01/25 00:36:20;;;;;;;;;;;;;;;;;;5033509;28;19960;-83
2023/01/25 00:38:46;;;;;;;;;;;;;;;;;;5016896;28;20340;-84
2023/01/25 00:41:12;;;;;;;;;;;;;;;;;;5028679;28;20027;-84
2023/01/25 00:43:37;;;;;;;;;;;;;;;;;;5013073;28;20616;-84
2023/01/25 00:46:03;;;;;;;;;;;;;;;;;;5031191;28;19925;-83
2023/01/25 00:48:29;;;;;;;;;;;;;;;;;;5031964;28;19925;-83
2023/01/25 00:50:55;;;;;;;;;;;;;;;;;;5045485;28;19921;-83
2023/01/25 00:53:21;;;;;;;;;;;;;;;;;;5036050;28;19923;-83
2023/01/25 00:55:47;;;;;;;;;;;;;;;;;;5033861;28;19925;-85
2023/01/25 00:58:13;;;;;;;;;;;;;;;;;;5032957;28;20286;-84
2023/01/25 01:00:39;;;;;;;;;;;;;;;;;;5036568;28;20273;-84
2023/01/25 01:03:05;;;;;;;;;;;;;;;;;;5030335;28;19928;-84
2023/01/25 01:05:31;;;;;;;;;;;;;;;;;;5034713;28;19924;-84
2023/01/25 01:07:57;;;;;;;;;;;;;;;;;;5030014;28;19960;-84
2023/01/25 01:10:23;;;;;;;;;;;;;;;;;;5014615;28;19921;-84
2023/01/25 01:12:48;;;;;;;;;;;;;;;;;;5034190;28;20028;-83
2023/01/25 01:15:14;;;;;;;;;;;;;;;;;;5034647;28;19928;-83
2023/01/25 01:17:40;;;;;;;;;;;;;;;;;;5013286;28;21521;-84
2023/01/25 01:20:06;;;;;;;;;;;;;;;;;;5028256;28;19918;-83
2023/01/25 01:22:32;;;;;;;;;;;;;;;;;;5010673;28;20662;-84
2023/01/25 01:24:58;;;;;;;;;;;;;;;;;;5024736;28;19925;-83
2023/01/25 01:27:24;;;;;;;;;;;;;;;;;;5025087;28;19928;-83
2023/01/25 01:29:50;;;;;;;;;;;;;;;;;;5017747;28;19920;-84
2023/01/25 01:32:16;;;;;;;;;;;;;;;;;;5017925;28;19917;-84
2023/01/25 01:34:43;;;;;;;;;;;;;;;;;;5011867;28;19928;-84
2023/01/25 01:37:09;;;;;;;;;;;;;;;;;;5017113;28;20513;-84
2023/01/25 01:39:35;;;;;;;;;;;;;;;;;;5015851;28;19924;-83
2023/01/25 01:42:01;;;;;;;;;;;;;;;;;;5016854;28;19925;-83
2023/01/25 01:44:26;;;;;;;;;;;;;;;;;;5021984;28;19916;-82
2023/01/25 01:46:52;;;;;;;;;;;;;;;;;;5026252;28;19932;-83
2023/01/25 01:49:18;;;;;;;;;;;;;;;;;;5012481;28;19925;-82
2023/01/25 01:51:44;;;;;;;;;;;;;;;;;;5013201;28;19931;-83
2023/01/25 01:54:10;;;;;;;;;;;;;;;;;;5045341;28;19971;-82
2023/01/25 01:56:36;;;;;;;;;;;;;;;;;;5043330;28;19959;-83
2023/01/25 01:59:02;;;;;;;;;;;;;;;;;;5032818;22;19924;-81
2023/01/25 02:01:28;;;;;;;;;;;;;;;;;;5022412;22;20010;-83
2023/01/25 02:03:54;;;;;;;;;;;;;;;;;;4995311;28;19921;-82
2023/01/25 02:06:20;;;;;;;;;;;;;;;;;;4967101;28;19925;-82
2023/01/25 02:08:46;;;;;;;;;;;;;;;;;;4992705;28;19957;-82
2023/01/25 02:11:12;;;;;;;;;;;;;;;;;;4994605;28;19917;-84
2023/01/25 02:13:38;;;;;;;;;;;;;;;;;;4998673;28;19917;-84
2023/01/25 02:16:04;;;;;;;;;;;;;;;;;;4997136;28;19917;-83
2023/01/25 02:18:29;;;;;;;;;;;;;;;;;;4983625;28;20170;-84
2023/01/25 02:20:55;;;;;;;;;;;;;;;;;;4991446;28;20300;-84
2023/01/25 02:23:21;;;;;;;;;;;;;;;;;;4989343;28;20502;-83
2023/01/25 02:25:47;;;;;;;;;;;;;;;;;;4996989;28;19968;-83
2023/01/25 02:28:13;;;;;;;;;;;;;;;;;;4982211;28;20423;-84
2023/01/25 02:30:39;;;;;;;;;;;;;;;;;;5001403;28;19922;-84
2023/01/25 02:33:05;;;;;;;;;;;;;;;;;;4988895;28;19921;-83
2023/01/25 02:35:31;;;;;;;;;;;;;;;;;;4998917;28;19917;-82
2023/01/25 02:37:57;;;;;;;;;;;;;;;;;;4982232;28;19928;-82
2023/01/25 02:40:23;;;;;;;;;;;;;;;;;;4983071;28;20384;-83
2023/01/25 02:42:48;;;;;;;;;;;;;;;;;;4983441;28;19921;-81
2023/01/25 02:45:14;;;;;;;;;;;;;;;;;;4999018;28;19934;-84
2023/01/25 02:47:40;;;;;;;;;;;;;;;;;;4995965;28;19925;-83
2023/01/25 02:50:06;;;;;;;;;;;;;;;;;;4980238;28;20288;-84
2023/01/25 02:52:32;;;;;;;;;;;;;;;;;;5000660;28;19917;-84
2023/01/25 02:54:58;;;;;;;;;;;;;;;;;;4997960;28;19997;-83
2023/01/25 02:57:24;;;;;;;;;;;;;;;;;;4999906;28;19988;-82
2023/01/25 02:59:50;;;;;;;;;;;;;;;;;;4997908;28;19925;-82
2023/01/25 03:02:16;;;;;;;;;;;;;;;;;;4998069;28;19921;-83
2023/01/25 03:04:42;;;;;;;;;;;;;;;;;;5000635;28;19989;-83
2023/01/25 03:07:08;;;;;;;;;;;;;;;;;;4993280;28;19953;-82
2023/01/25 03:09:34;;;;;;;;;;;;;;;;;;4996334;28;19917;-82
2023/01/25 03:11:59;;;;;;;;;;;;;;;;;;4979156;28;20173;-81
2023/01/25 03:14:25;;;;;;;;;;;;;;;;;;4990030;28;19933;-83
2023/01/25 03:16:51;;;;;;;;;;;;;;;;;;4991352;28;19936;-84
2023/01/25 03:19:17;;;;;;;;;;;;;;;;;;4981835;28;19926;-83
2023/01/25 03:21:43;;;;;;;;;;;;;;;;;;4992917;28;19921;-82
2023/01/25 03:24:10;;;;;;;;;;;;;;;;;;4982060;28;19918;-82
2023/01/25 03:27:09;;;;;;;;;;;;;;;;;;4992710;28;19977;-82
2023/01/25 03:29:21;;;;;;;;;;;;;;;;;;4994506;28;20287;-83
2023/01/25 03:31:47;;;;;;;;;;;;;;;;;;4981240;28;19917;-83
2023/01/25 03:34:13;;;;;;;;;;;;;;;;;;4997692;28;19929;-82
2023/01/25 03:36:39;;;;;;;;;;;;;;;;;;4985307;28;19930;-84
2023/01/25 03:39:05;;;;;;;;;;;;;;;;;;4986166;28;19979;-82
2023/01/25 03:41:31;;;;;;;;;;;;;;;;;;4992448;28;21314;-83
2023/01/25 03:43:57;;;;;;;;;;;;;;;;;;4991205;28;19917;-83
2023/01/25 03:46:23;;;;;;;;;;;;;;;;;;4982840;28;19921;-82
2023/01/25 03:48:49;;;;;;;;;;;;;;;;;;4977562;28;19925;-82
2023/01/25 03:51:15;;;;;;;;;;;;;;;;;;4977337;28;19975;-82
2023/01/25 03:53:41;;;;;;;;;;;;;;;;;;4993605;28;20404;-82
2023/01/25 03:56:10;;;;;;;;;;;;;;;;;;4977200;28;19972;-82
2023/01/25 03:58:36;;;;;;;;;;;;;;;;;;4991353;28;20056;-82
2023/01/25 04:01:02;;;;;;;;;;;;;;;;;;4977270;28;20000;-82
2023/01/25 04:03:28;;;;;;;;;;;;;;;;;;4979854;28;19918;-82
2023/01/25 04:05:54;;;;;;;;;;;;;;;;;;4981243;28;19925;-82
2023/01/25 04:08:20;;;;;;;;;;;;;;;;;;4984419;28;19929;-83
2023/01/25 04:10:47;;;;;;;;;;;;;;;;;;5000843;28;19921;-82
2023/01/25 04:13:12;;;;;;;;;;;;;;;;;;4991893;28;19933;-83
2023/01/25 04:15:38;;;;;;;;;;;;;;;;;;4990087;28;19927;-81
2023/01/25 04:18:04;;;;;;;;;;;;;;;;;;4979123;28;20497;-82
2023/01/25 04:20:30;;;;;;;;;;;;;;;;;;4977161;28;19933;-81
2023/01/25 04:22:56;;;;;;;;;;;;;;;;;;4986962;28;19921;-81
2023/01/25 04:25:22;;;;;;;;;;;;;;;;;;4987248;28;19921;-83
2023/01/25 04:27:48;;;;;;;;;;;;;;;;;;4995261;28;20008;-82
2023/01/25 04:30:14;;;;;;;;;;;;;;;;;;4973635;28;19968;-82
2023/01/25 04:32:40;;;;;;;;;;;;;;;;;;4977396;28;19964;-82
2023/01/25 04:35:06;;;;;;;;;;;;;;;;;;4976599;28;19925;-82
2023/01/25 04:37:31;;;;;;;;;;;;;;;;;;4981530;28;20142;-81
2023/01/25 04:39:57;;;;;;;;;;;;;;;;;;4996532;28;19921;-82
2023/01/25 04:42:23;;;;;;;;;;;;;;;;;;4980351;28;19930;-82
2023/01/25 04:44:49;;;;;;;;;;;;;;;;;;4990509;28;19922;-81
2023/01/25 04:47:15;;;;;;;;;;;;;;;;;;4993064;28;19921;-82
2023/01/25 04:49:41;;;;;;;;;;;;;;;;;;5000536;28;20288;-82
2023/01/25 04:52:07;;;;;;;;;;;;;;;;;;4978678;28;19932;-82
2023/01/25 04:54:33;;;;;;;;;;;;;;;;;;4976929;28;19958;-82
2023/01/25 04:56:59;;;;;;;;;;;;;;;;;;4988455;28;20016;-82
2023/01/25 04:59:25;;;;;;;;;;;;;;;;;;4980034;28;20009;-83
2023/01/25 05:01:51;;;;;;;;;;;;;;;;;;4977279;28;20019;-82
2023/01/25 05:04:17;;;;;;;;;;;;;;;;;;4990746;28;20407;-83
2023/01/25 05:06:42;;;;;;;;;;;;;;;;;;4981554;28;20011;-82
2023/01/25 05:09:08;;;;;;;;;;;;;;;;;;4981005;28;19992;-82
2023/01/25 05:11:34;;;;;;;;;;;;;;;;;;4982384;28;19956;-82
2023/01/25 05:14:00;;;;;;;;;;;;;;;;;;4997380;28;19926;-82
2023/01/25 05:16:26;;;;;;;;;;;;;;;;;;4999864;28;19985;-83
2023/01/25 05:18:52;;;;;;;;;;;;;;;;;;4983818;28;19959;-81
2023/01/25 05:24:03;;;;;;;;;;;;;;;;;;5005701;28;20433;-85
2023/01/25 05:29:13;;;;;;;;;;;;;;;;;;4992057;28;19917;-82
2023/01/25 05:31:39;;;;;;;;;;;;;;;;;;4975222;28;20307;-83
2023/01/25 05:34:05;;;;;;;;;;;;;;;;;;4991448;28;19929;-83
2023/01/25 05:36:31;;;;;;;;;;;;;;;;;;4989374;28;20004;-83
2023/01/25 05:38:57;;;;;;;;;;;;;;;;;;4992467;28;20015;-83
2023/01/25 05:41:23;;;;;;;;;;;;;;;;;;4992124;28;19922;-83
2023/01/25 05:43:49;;;;;;;;;;;;;;;;;;4988307;28;19924;-81
2023/01/25 05:46:15;;;;;;;;;;;;;;;;;;4969731;28;19952;-82
2023/01/25 05:48:41;;;;;;;;;;;;;;;;;;4994047;28;20819;-81
2023/01/25 05:51:07;;;;;;;;;;;;;;;;;;4989895;28;20355;-83
2023/01/25 05:53:33;;;;;;;;;;;;;;;;;;4986602;28;19929;-82
2023/01/25 05:55:58;;;;;;;;;;;;;;;;;;4985708;28;19918;-82
2023/01/25 05:58:24;;;;;;;;;;;;;;;;;;4985117;28;19929;-82
2023/01/25 06:00:50;;;;;;;;;;;;;;;;;;4986909;28;19976;-83
2023/01/25 06:03:16;;;;;;;;;;;;;;;;;;4986135;28;19921;-82
2023/01/25 06:05:42;;;;;;;;;;;;;;;;;;4982362;28;20000;-82
2023/01/25 06:08:08;;;;;;;;;;;;;;;;;;4973077;28;20431;-83
2023/01/25 06:10:34;;;;;;;;;;;;;;;;;;4989245;28;19931;-82
2023/01/25 06:13:00;;;;;;;;;;;;;;;;;;4995815;28;19932;-82
2023/01/25 06:15:26;;;;;;;;;;;;;;;;;;4994463;28;19932;-81
2023/01/25 06:17:52;;;;;;;;;;;;;;;;;;4997211;28;19933;-82
2023/01/25 06:20:18;;;;;;;;;;;;;;;;;;4994744;28;19917;-82
2023/01/25 06:22:43;;;;;;;;;;;;;;;;;;4985911;28;20344;-83
2023/01/25 06:25:09;;;;;;;;;;;;;;;;;;4987284;28;20662;-82
2023/01/25 06:27:35;;;;;;;;;;;;;;;;;;4991955;28;19925;-82
2023/01/25 06:30:01;;;;;;;;;;;;;;;;;;4989853;28;19996;-81
2023/01/25 06:32:27;;;;;;;;;;;;;;;;;;4992382;28;19960;-82
2023/01/25 06:34:53;;;;;;;;;;;;;;;;;;4985407;28;19969;-83
2023/01/25 06:37:21;;;;;;;;;;;;;;;;;;4991025;28;23029;-82
2023/01/25 06:39:47;;;;;;;;;;;;;;;;;;4993669;28;19932;-82
2023/01/25 06:42:13;;;;;;;;;;;;;;;;;;4976630;28;19929;-81
2023/01/25 06:44:39;;;;;;;;;;;;;;;;;;4993554;28;20007;-83
2023/01/25 06:47:05;;;;;;;;;;;;;;;;;;5001903;28;20465;-82
2023/01/25 06:49:31;;;;;;;;;;;;;;;;;;4996421;28;19918;-82
2023/01/25 06:51:57;;;;;;;;;;;;;;;;;;4988964;28;19917;-82
2023/01/25 06:54:23;;;;;;;;;;;;;;;;;;5006547;28;19940;-83
2023/01/25 06:56:49;;;;;;;;;;;;;;;;;;4996127;28;19973;-82
2023/01/25 06:59:15;;;;;;;;;;;;;;;;;;4977556;28;20431;-81
2023/01/25 07:01:41;;;;;;;;;;;;;;;;;;4982476;28;19921;-83
2023/01/25 07:04:06;;;;;;;;;;;;;;;;;;4979081;28;19918;-82
2023/01/25 07:06:35;;;;;;;;;;;;;;;;;;4985278;28;19925;-82
2023/01/25 07:09:01;;;;;;;;;;;;;;;;;;4984556;28;19980;-81
2023/01/25 07:11:27;;;;;;;;;;;;;;;;;;4995502;28;20341;-82
2023/01/25 07:13:53;;;;;;;;;;;;;;;;;;4980598;28;19929;-80
2023/01/25 07:16:19;;;;;;;;;;;;;;;;;;5000801;28;19940;-80
2023/01/25 07:18:45;;;;;;;;;;;;;;;;;;5002222;28;20331;-81
2023/01/25 07:21:11;;;;;;;;;;;;;;;;;;4986573;28;20431;-80
2023/01/25 07:23:37;;;;;;;;;;;;;;;;;;4996138;28;19927;-81
2023/01/25 07:26:03;;;;;;;;;;;;;;;;;;4985742;28;19989;-82
2023/01/25 07:28:29;;;;;;;;;;;;;;;;;;4979632;28;20400;-80
2023/01/25 07:30:55;;;;;;;;;;;;;;;;;;4998791;28;19928;-80
2023/01/25 07:33:21;;;;;;;;;;;;;;;;;;4994756;28;19918;-81
2023/01/25 07:35:49;;;;;;;;;;;;;;;;;;4979687;28;19990;-80
2023/01/25 07:38:15;;;;;;;;;;;;;;;;;;4984328;28;19933;-81
2023/01/25 07:40:41;;;;;;;;;;;;;;;;;;4998597;28;19918;-83
2023/01/25 07:43:07;;;;;;;;;;;;;;;;;;4996515;28;20862;-81
2023/01/25 07:45:33;;;;;;;;;;;;;;;;;;4992102;28;19917;-80
2023/01/25 07:48:00;;;;;;;;;;;;;;;;;;5002213;28;19924;-81
2023/01/25 07:50:26;;;;;;;;;;;;;;;;;;4999004;28;19917;-83
2023/01/25 07:52:52;;;;;;;;;;;;;;;;;;4990550;28;19926;-81
2023/01/25 07:55:18;;;;;;;;;;;;;;;;;;4985443;28;19962;-80
2023/01/25 07:57:43;;;;;;;;;;;;;;;;;;5002695;28;19921;-81
2023/01/25 08:00:09;;;;;;;;;;;;;;;;;;4995024;28;19922;-80
2023/01/25 08:02:36;;;;;;;;;;;;;;;;;;4976331;28;19921;-81
2023/01/25 08:05:02;;;;;;;;;;;;;;;;;;4976286;28;19926;-80
2023/01/25 08:07:28;;;;;;;;;;;;;;;;;;4986451;28;19963;-80
2023/01/25 08:09:54;;;;;;;;;;;;;;;;;;4978849;28;19921;-81
2023/01/25 08:12:20;;;;;;;;;;;;;;;;;;4987939;28;20012;-81
2023/01/25 08:14:48;;;;;;;;;;;;;;;;;;4990251;28;19917;-80
2023/01/25 08:17:14;;;;;;;;;;;;;;;;;;4976377;28;20016;-80
2023/01/25 08:19:40;;;;;;;;;;;;;;;;;;4991569;28;20008;-80
2023/01/25 08:22:06;;;;;;;;;;;;;;;;;;4987853;28;19957;-80
2023/01/25 08:24:32;;;;;;;;;;;;;;;;;;4979808;28;20007;-80
2023/01/25 08:26:58;;;;;;;;;;;;;;;;;;4992219;28;20027;-81
2023/01/25 08:29:26;;;;;;;;;;;;;;;;;;4991047;28;20055;-80
2023/01/25 08:31:52;;;;;;;;;;;;;;;;;;4979865;28;20028;-81
2023/01/25 08:34:18;;;;;;;;;;;;;;;;;;4992263;28;20008;-80
2023/01/25 08:36:44;;;;;;;;;;;;;;;;;;4988054;28;20287;-80
2023/01/25 08:39:10;;;;;;;;;;;;;;;;;;4984008;28;19929;-81
2023/01/25 08:41:36;;;;;;;;;;;;;;;;;;4988916;28;19925;-81
2023/01/25 08:44:02;;;;;;;;;;;;;;;;;;4972851;28;19925;-81
2023/01/25 08:46:28;;;;;;;;;;;;;;;;;;4982273;28;19945;-81
2023/01/25 08:48:54;;;;;;;;;;;;;;;;;;4991258;28;20068;-80
2023/01/25 08:51:20;;;;;;;;;;;;;;;;;;4975811;28;20380;-80
2023/01/25 08:53:46;;;;;;;;;;;;;;;;;;4985207;28;20043;-80
2023/01/25 08:56:11;;;;;;;;;;;;;;;;;;5000191;28;20015;-80
2023/01/25 08:58:37;;;;;;;;;;;;;;;;;;4995669;28;19921;-81
2023/01/25 09:01:03;;;;;;;;;;;;;;;;;;5005326;28;19917;-82
2023/01/25 09:03:29;;;;;;;;;;;;;;;;;;5006008;28;19921;-84
2023/01/25 09:05:55;;;;;;;;;;;;;;;;;;5009613;28;20395;-81
2023/01/25 09:08:21;;;;;;;;;;;;;;;;;;5000306;28;19917;-81
2023/01/25 09:10:47;;;;;;;;;;;;;;;;;;5001581;28;19921;-81
2023/01/25 09:13:13;;;;;;;;;;;;;;;;;;5001749;28;20371;-79
2023/01/25 09:15:39;;;;;;;;;;;;;;;;;;4998902;28;19924;-81
2023/01/25 09:18:05;;;;;;;;;;;;;;;;;;5000690;28;19925;-83
2023/01/25 09:20:31;;;;;;;;;;;;;;;;;;4999106;28;19922;-81
2023/01/25 09:22:57;;;;;;;;;;;;;;;;;;4986456;28;19976;-81
2023/01/25 09:25:23;;;;;;;;;;;;;;;;;;5014685;28;20326;-80
2023/01/25 09:27:50;;;;;;;;;;;;;;;;;;4984270;28;19921;-81
2023/01/25 09:30:16;;;;;;;;;;;;;;;;;;5005810;28;20415;-81
2023/01/25 09:32:41;;;;;;;;;;;;;;;;;;4985763;28;19917;-80
2023/01/25 09:35:07;;;;;;;;;;;;;;;;;;5004620;28;19917;-82
2023/01/25 09:37:33;;;;;;;;;;;;;;;;;;5006197;28;20008;-85
2023/01/25 09:40:00;;;;;;;;;;;;;;;;;;4986277;28;19960;-82
2023/01/25 09:42:26;;;;;;;;;;;;;;;;;;5003768;28;19921;-82
2023/01/25 09:44:52;;;;;;;;;;;;;;;;;;5002609;28;20040;-83
2023/01/25 09:47:18;;;;;;;;;;;;;;;;;;5010503;28;19917;-81
2023/01/25 09:49:44;;;;;;;;;;;;;;;;;;4999529;28;20574;-81
2023/01/25 09:52:10;;;;;;;;;;;;;;;;;;4992096;28;19952;-81
2023/01/25 09:54:35;;;;;;;;;;;;;;;;;;4996227;28;19957;-82
2023/01/25 09:57:02;;;;;;;;;;;;;;;;;;4996408;28;19975;-82
2023/01/25 09:59:29;;;;;;;;;;;;;;;;;;4975835;28;20399;-81
2023/01/25 10:01:55;;;;;;;;;;;;;;;;;;4982392;28;19932;-81
2023/01/25 10:04:21;;;;;;;;;;;;;;;;;;5003623;28;19917;-80
2023/01/25 10:06:47;;;;;;;;;;;;;;;;;;4990733;28;20783;-81
2023/01/25 10:09:13;;;;;;;;;;;;;;;;;;4987785;28;19917;-81
2023/01/25 10:11:39;;;;;;;;;;;;;;;;;;5000180;28;19921;-81
2023/01/25 10:14:04;;;;;;;;;;;;;;;;;;5003356;28;19918;-83
2023/01/25 10:16:30;;;;;;;;;;;;;;;;;;5009991;28;19967;-82
2023/01/25 10:18:56;;;;;;;;;;;;;;;;;;4987814;28;19921;-82
2023/01/25 10:21:22;;;;;;;;;;;;;;;;;;4983626;28;20005;-81
2023/01/25 10:23:48;;;;;;;;;;;;;;;;;;4998721;28;19921;-80
2023/01/25 10:26:14;;;;;;;;;;;;;;;;;;4982510;28;19949;-80
2023/01/25 10:28:40;;;;;;;;;;;;;;;;;;5000358;28;20547;-81
2023/01/25 10:31:06;;;;;;;;;;;;;;;;;;4984420;28;20020;-81
2023/01/25 10:33:32;;;;;;;;;;;;;;;;;;4980492;28;19956;-82
2023/01/25 10:35:58;;;;;;;;;;;;;;;;;;5004123;28;21168;-81
2023/01/25 10:38:24;;;;;;;;;;;;;;;;;;4987119;28;19957;-81
2023/01/25 10:40:50;;;;;;;;;;;;;;;;;;4983624;28;19960;-82
2023/01/25 10:43:16;;;;;;;;;;;;;;;;;;4982330;28;19922;-82
2023/01/25 10:45:43;;;;;;;;;;;;;;;;;;4988304;28;19917;-82
2023/01/25 10:48:09;;;;;;;;;;;;;;;;;;4986213;28;20490;-81
2023/01/25 10:50:35;;;;;;;;;;;;;;;;;;4997797;28;19922;-83
2023/01/25 10:53:01;;;;;;;;;;;;;;;;;;4989205;28;19928;-80
2023/01/25 10:55:27;;;;;;;;;;;;;;;;;;5001230;28;19927;-81
2023/01/25 10:57:53;;;;;;;;;;;;;;;;;;4985318;28;19959;-79
2023/01/25 11:00:19;;;;;;;;;;;;;;;;;;4989296;28;19918;-81
2023/01/25 11:02:45;;;;;;;;;;;;;;;;;;4991780;28;19940;-82
2023/01/25 11:05:11;;;;;;;;;;;;;;;;;;4992266;28;20306;-82
2023/01/25 11:07:37;;;;;;;;;;;;;;;;;;4988864;28;19917;-80
2023/01/25 11:10:03;;;;;;;;;;;;;;;;;;4995256;28;20003;-82
2023/01/25 11:12:28;;;;;;;;;;;;;;;;;;4985524;28;20016;-81
2023/01/25 11:14:54;;;;;;;;;;;;;;;;;;4986104;28;19929;-81
2023/01/25 11:17:20;;;;;;;;;;;;;;;;;;4999334;28;19921;-81
2023/01/25 11:19:46;;;;;;;;;;;;;;;;;;4998084;28;19935;-82
2023/01/25 11:22:12;;;;;;;;;;;;;;;;;;4984144;28;19928;-83
2023/01/25 11:24:38;;;;;;;;;;;;;;;;;;4989476;28;19917;-82
2023/01/25 11:27:04;;;;;;;;;;;;;;;;;;5009130;28;19932;-83
2023/01/25 11:29:30;;;;;;;;;;;;;;;;;;4992155;28;19979;-84
2023/01/25 11:31:57;;;;;;;;;;;;;;;;;;5003058;28;19936;-84
2023/01/25 11:34:23;;;;;;;;;;;;;;;;;;4990745;28;20367;-83
2023/01/25 11:36:49;;;;;;;;;;;;;;;;;;5008162;28;19996;-83
2023/01/25 11:39:15;;;;;;;;;;;;;;;;;;5015702;28;20375;-83
2023/01/25 11:41:41;;;;;;;;;;;;;;;;;;5007515;28;19978;-82
2023/01/25 11:44:07;;;;;;;;;;;;;;;;;;4988042;28;19924;-81
2023/01/25 11:46:33;;;;;;;;;;;;;;;;;;5001344;28;19918;-80
2023/01/25 11:48:59;;;;;;;;;;;;;;;;;;4975975;28;19998;-80
2023/01/25 11:51:25;;;;;;;;;;;;;;;;;;4984843;28;20016;-82
2023/01/25 11:53:51;;;;;;;;;;;;;;;;;;4992193;28;20293;-84
2023/01/25 11:56:17;;;;;;;;;;;;;;;;;;5006095;28;20116;-82
2023/01/25 11:58:43;;;;;;;;;;;;;;;;;;4987951;28;19936;-82
2023/01/25 12:01:09;;;;;;;;;;;;;;;;;;4983702;28;19924;-82
2023/01/25 12:03:35;;;;;;;;;;;;;;;;;;4987021;28;19921;-82
2023/01/25 12:06:01;;;;;;;;;;;;;;;;;;4991399;28;19921;-81
2023/01/25 12:08:27;;;;;;;;;;;;;;;;;;5010811;28;20433;-82
2023/01/25 12:10:53;;;;;;;;;;;;;;;;;;4987052;28;19918;-82
2023/01/25 12:13:19;;;;;;;;;;;;;;;;;;5001759;28;19936;-82
2023/01/25 12:15:45;;;;;;;;;;;;;;;;;;4990217;28;20292;-82
2023/01/25 12:18:11;;;;;;;;;;;;;;;;;;4982529;28;19928;-82
2023/01/25 12:20:37;;;;;;;;;;;;;;;;;;4986227;28;19921;-81
2023/01/25 12:23:03;;;;;;;;;;;;;;;;;;4996199;28;19939;-82
2023/01/25 12:25:29;;;;;;;;;;;;;;;;;;5008763;28;20440;-81
2023/01/25 12:27:55;;;;;;;;;;;;;;;;;;5001013;28;20296;-82
2023/01/25 12:30:21;;;;;;;;;;;;;;;;;;5005986;28;20372;-82
2023/01/25 12:32:48;;;;;;;;;;;;;;;;;;4988491;28;19921;-81
2023/01/25 12:35:14;;;;;;;;;;;;;;;;;;4984081;28;19935;-82
2023/01/25 12:37:40;;;;;;;;;;;;;;;;;;5006861;28;20374;-83
2023/01/25 12:40:06;;;;;;;;;;;;;;;;;;5002466;28;19917;-82
2023/01/25 12:42:32;;;;;;;;;;;;;;;;;;5009604;28;19917;-83
2023/01/25 12:44:58;;;;;;;;;;;;;;;;;;4990314;28;19984;-86
2023/01/25 12:47:24;;;;;;;;;;;;;;;;;;4978950;28;20016;-82
2023/01/25 12:49:50;;;;;;;;;;;;;;;;;;4989064;28;19929;-81
2023/01/25 12:52:16;;;;;;;;;;;;;;;;;;4987420;28;19918;-82
2023/01/25 12:54:42;;;;;;;;;;;;;;;;;;4991555;28;19945;-82
2023/01/25 12:57:07;;;;;;;;;;;;;;;;;;4990210;28;19925;-82
2023/01/25 12:59:33;;;;;;;;;;;;;;;;;;4991227;28;19971;-82
2023/01/25 13:01:59;;;;;;;;;;;;;;;;;;4992475;28;19922;-82
2023/01/25 13:04:25;;;;;;;;;;;;;;;;;;4989794;28;20581;-80
2023/01/25 13:06:51;;;;;;;;;;;;;;;;;;4988015;28;19918;-81
2023/01/25 13:09:17;;;;;;;;;;;;;;;;;;5003923;28;19928;-81
2023/01/25 13:11:43;;;;;;;;;;;;;;;;;;5010296;28;20363;-82
2023/01/25 13:14:09;;;;;;;;;;;;;;;;;;5010732;28;19926;-82
2023/01/25 13:16:35;;;;;;;;;;;;;;;;;;4993849;28;19933;-83
2023/01/25 13:19:01;;;;;;;;;;;;;;;;;;5005326;28;20142;-84
2023/01/25 13:21:27;;;;;;;;;;;;;;;;;;4990279;28;20295;-82
2023/01/25 13:23:53;;;;;;;;;;;;;;;;;;5008261;28;19917;-82
2023/01/25 13:26:19;;;;;;;;;;;;;;;;;;5004682;28;20473;-82
2023/01/25 13:28:45;;;;;;;;;;;;;;;;;;4988219;28;19961;-81
2023/01/25 13:31:11;;;;;;;;;;;;;;;;;;5006894;28;19979;-81
2023/01/25 13:33:37;;;;;;;;;;;;;;;;;;5006944;28;19993;-86
2023/01/25 13:36:03;;;;;;;;;;;;;;;;;;5004744;28;19918;-83
2023/01/25 13:38:30;;;;;;;;;;;;;;;;;;4993068;28;19929;-82
2023/01/25 13:40:56;;;;;;;;;;;;;;;;;;5003289;28;19967;-82
2023/01/25 13:43:22;;;;;;;;;;;;;;;;;;5015379;28;20264;-82
2023/01/25 13:45:47;;;;;;;;;;;;;;;;;;5005607;28;19926;-81
2023/01/25 13:48:15;;;;;;;;;;;;;;;;;;4993108;28;19962;-83
2023/01/25 13:50:41;;;;;;;;;;;;;;;;;;4992336;28;20395;-81
2023/01/25 13:53:07;;;;;;;;;;;;;;;;;;5007653;28;19925;-82
2023/01/25 13:55:33;;;;;;;;;;;;;;;;;;4987870;28;19925;-82
2023/01/25 13:57:59;;;;;;;;;;;;;;;;;;5007833;28;19921;-84
2023/01/25 14:00:24;;;;;;;;;;;;;;;;;;4985138;28;20359;-84
2023/01/25 14:02:50;;;;;;;;;;;;;;;;;;5002641;28;19932;-83
2023/01/25 14:05:16;;;;;;;;;;;;;;;;;;4991864;28;19924;-82
2023/01/25 14:07:42;;;;;;;;;;;;;;;;;;4993916;28;19917;-81
2023/01/25 14:10:09;;;;;;;;;;;;;;;;;;4998695;28;19917;-81
2023/01/25 14:12:35;;;;;;;;;;;;;;;;;;4989543;28;19922;-82
2023/01/25 14:15:01;;;;;;;;;;;;;;;;;;5018659;28;19989;-81
2023/01/25 14:17:27;;;;;;;;;;;;;;;;;;4991752;28;19921;-80
2023/01/25 14:19:53;;;;;;;;;;;;;;;;;;4986243;28;19917;-81
2023/01/25 14:22:19;;;;;;;;;;;;;;;;;;5002772;28;19924;-80
2023/01/25 14:24:45;;;;;;;;;;;;;;;;;;4990540;28;20383;-81
2023/01/25 14:27:11;;;;;;;;;;;;;;;;;;5008375;28;20249;-81
2023/01/25 14:29:36;;;;;;;;;;;;;;;;;;5006793;28;19918;-81
2023/01/25 14:32:02;;;;;;;;;;;;;;;;;;5011445;28;19918;-83
2023/01/25 14:34:28;;;;;;;;;;;;;;;;;;4988080;28;19918;-82
2023/01/25 14:36:54;;;;;;;;;;;;;;;;;;4990304;28;21048;-81
2023/01/25 14:39:20;;;;;;;;;;;;;;;;;;5011008;28;20315;-80
2023/01/25 14:41:50;;;;;;;;;;;;;;;;;;5019899;28;19932;-82
2023/01/25 14:44:16;;;;;;;;;;;;;;;;;;4994957;28;19917;-80
2023/01/25 14:46:42;;;;;;;;;;;;;;;;;;4994542;28;19929;-81
2023/01/25 14:49:08;;;;;;;;;;;;;;;;;;5008749;28;20255;-80
2023/01/25 14:51:34;;;;;;;;;;;;;;;;;;4989082;28;19925;-80
2023/01/25 14:54:00;;;;;;;;;;;;;;;;;;4992554;28;20145;-83
2023/01/25 14:56:26;;;;;;;;;;;;;;;;;;5008918;28;19932;-83
2023/01/25 14:58:51;;;;;;;;;;;;;;;;;;4988953;28;19929;-81
2023/01/25 15:01:17;;;;;;;;;;;;;;;;;;5010657;28;19939;-82
2023/01/25 15:03:43;;;;;;;;;;;;;;;;;;4985283;28;19925;-82
2023/01/25 15:06:09;;;;;;;;;;;;;;;;;;5003726;28;20012;-82
2023/01/25 15:08:35;;;;;;;;;;;;;;;;;;5001896;28;19940;-80
2023/01/25 15:13:46;;;;;;;;;;;;;;;;;;5000189;28;19917;-81
2023/01/25 15:16:12;;;;;;;;;;;;;;;;;;4999126;28;19925;-81
2023/01/25 15:18:38;;;;;;;;;;;;;;;;;;5002228;28;19922;-82
2023/01/25 15:21:04;;;;;;;;;;;;;;;;;;4996578;28;19918;-82
2023/01/25 15:23:30;;;;;;;;;;;;;;;;;;4996877;28;20617;-81
2023/01/25 15:25:56;;;;;;;;;;;;;;;;;;4981024;28;19931;-83
2023/01/25 15:28:22;;;;;;;;;;;;;;;;;;5000260;28;19925;-82
2023/01/25 15:30:48;;;;;;;;;;;;;;;;;;4980414;28;19925;-80
2023/01/25 15:33:14;;;;;;;;;;;;;;;;;;4988260;28;19957;-84
2023/01/25 15:35:41;;;;;;;;;;;;;;;;;;4994104;28;19918;-83
2023/01/25 15:38:07;;;;;;;;;;;;;;;;;;5004071;28;19928;-81
2023/01/25 15:40:36;;;;;;;;;;;;;;;;;;4984751;28;20016;-82
2023/01/25 15:43:02;;;;;;;;;;;;;;;;;;5001305;28;20296;-81
2023/01/25 15:45:30;;;;;;;;;;;;;;;;;;4992404;28;19924;-82
2023/01/25 15:48:01;;;;;;;;;;;;;;;;;;5008450;28;19917;-81
2023/01/25 15:50:30;;;;;;;;;;;;;;;;;;5001488;28;19975;-81
2023/01/25 15:52:59;;;;;;;;;;;;;;;;;;4984791;28;20016;-80
2023/01/25 15:55:25;;;;;;;;;;;;;;;;;;4989551;28;19921;-81
2023/01/25 15:57:51;;;;;;;;;;;;;;;;;;5004328;28;19921;-82
2023/01/25 16:00:20;;;;;;;;;;;;;;;;;;4979194;28;20252;-82
2023/01/25 16:02:46;;;;;;;;;;;;;;;;;;4980352;28;19952;-81
2023/01/25 16:05:12;;;;;;;;;;;;;;;;;;4984132;28;19964;-81
2023/01/25 16:07:37;;;;;;;;;;;;;;;;;;4986063;28;20358;-83
2023/01/25 16:10:03;;;;;;;;;;;;;;;;;;4984453;28;20004;-81
2023/01/25 16:12:31;;;;;;;;;;;;;;;;;;5003421;28;19921;-83
2023/01/25 16:14:57;;;;;;;;;;;;;;;;;;5002331;28;19921;-82
2023/01/25 16:17:23;;;;;;;;;;;;;;;;;;5003817;28;20097;-81
2023/01/25 16:19:49;;;;;;;;;;;;;;;;;;5000651;28;19977;-83
2023/01/25 16:22:15;;;;;;;;;;;;;;;;;;5001885;28;19925;-85
2023/01/25 16:24:41;;;;;;;;;;;;;;;;;;4999353;28;19925;-82
2023/01/25 16:27:06;;;;;;;;;;;;;;;;;;4999469;28;19917;-80
2023/01/25 16:29:32;;;;;;;;;;;;;;;;;;4999105;28;20184;-82
2023/01/25 16:31:58;;;;;;;;;;;;;;;;;;4982607;28;19933;-81
2023/01/25 16:34:24;;;;;;;;;;;;;;;;;;4991571;28;19926;-83
2023/01/25 16:36:51;;;;;;;;;;;;;;;;;;4983825;28;20648;-83
2023/01/25 16:39:18;;;;;;;;;;;;;;;;;;4967658;28;21854;-84
2023/01/25 16:41:44;;;;;;;;;;;;;;;;;;4988661;28;19960;-84
2023/01/25 16:44:10;;;;;;;;;;;;;;;;;;4974803;28;19964;-85
2023/01/25 16:46:36;;;;;;;;;;;;;;;;;;4987483;28;20717;-83